SPTU Airport Information

Runway Information
Runway 01 Length 11482 ft width 148 ft
Elevation 659 ft Threshold ft Heading 2
Runway 19 Length 11482 ft Width 148 ft
Elevation 656 ft Threshold ft Heading 182
Airport Frequencies
Type APP Name PUERTO MAL Frequency 118.8 MHZ
Type RDO Name PUERTO MAL Frequency 126.9 MHZ
Type TWR Name PUERTO MAL Frequency 118.8 MHZ
Airport Navaids
Type VOR-DME Name Puerto Maldonado Frequency 116100 KHZ
Airport Weather Information & NOTAM
ADDS - METARS form results

(2232 UTC 25 June 2022)
Data provider http://aviationweather.gov/metar/data/
 
Forecast for: SPTU (PUERTO MALDONADO, PE)
Text: TAF SPTU 251715Z 2518/2618 14007KT 9999 FEW015 TX32/2520Z TN19/2611Z
Forecast period: 1800 UTC 25 June 2022 to 1800 UTC 26 June 2022
Forecast type: FROM: standard forecast or significant change
Winds: from the SE (140 degrees) at 8 MPH (7 knots; 3.6 m/s)
Visibility: 6 or more miles (10+ km)
Ceiling: at least 12,000 feet AGL
Clouds: few clouds at 1500 feet AGL
Weather: no significant weather forecast for this period